Latest Coastal Weather Observations for Cape Moreton

IDQ60701

Issued at 4:42 pm EST Wednesday 24 August 2016 (issued every 10 minutes, with the page automatically refreshed every 10 minutes)

About coastal observations | Map of coastal stations | Coastal observations for QLD | Marine services | Other Formats
Station Details ID: 040043 Name: CAPE MORETON LIGHTHOUSE Lat: -27.03 Lon: 153.47 Height: 99.9 m
Data from the previous 72 hours. | See also: Recent months at Cape Moreton
Date/Time
EST
Temp
°C
Wind Pressure Rain since
9am
mm
Weather Cloud Vis
km
Sea
Height
m
Swell
Dir  Spd
kts
Gust
kts
hPa Trend Height
m
Period
s
Dir
24/04:30pm 16.5 S 14 19 1007.5 - 4.6 - - - - - - -
24/04:00pm 16.5 S 17 23 1006.9 - 4.6 - - - - - - -
24/03:30pm 16.5 S 15 19 1006.7 - 4.6 - - - - - - -
24/03:00pm 16.6 S 17 23 1006.4 - 4.6 Recent precip. - - - - - -
24/02:30pm 18.4 WSW 18 25 1005.9 - 4.4 - - - - - - -
24/02:11pm 18.3 WSW 19 30 1005.7 - 3.0 - - - - - - -
24/02:00pm 18.0 W 18 26 1005.9 - 2.2 - - - - - - -
24/01:30pm 21.1 NNW 13 20 1004.9 - 0.0 - - - - - - -
24/01:00pm 21.5 NNW 14 20 1004.9 - 0.0 - - - - - - -
24/12:30pm 21.3 N 16 20 1005.4 - 0.0 - - - - - - -
24/12:00pm 21.2 N 18 25 1005.9 - 0.0 - - - - - - -
24/11:30am 21.2 N 19 24 1006.4 - 0.0 - - - - - - -
24/11:00am 21.1 NNW 16 22 1007.1 - 0.0 - - - - - - -
24/10:30am 21.2 NNW 16 21 1007.7 - 0.0 - - - - - - -
24/10:00am 21.2 NNW 15 21 1008.3 - 0.0 - - - - - - -
24/09:30am 21.0 NNW 16 21 1008.6 - 0.0 - - - - - - -
24/09:00am 20.9 NNW 15 22 1008.6 - 4.8 - - - - - - -
24/08:30am 20.8 NNW 13 19 1008.7 - 4.8 - - - - - - -
24/08:00am 20.5 NNW 16 24 1008.9 - 4.8 - - - - - - -
24/07:30am 20.3 NNW 14 20 1008.8 - 4.8 - - - - - - -
24/07:00am 20.2 N 18 23 1008.6 - 4.8 - - - - - - -
24/06:30am 19.7 N 14 19 1008.4 - 4.8 - - - - - - -
24/06:00am 19.7 N 18 23 1008.0 - 4.8 - - - - - - -
24/05:30am 19.8 N 19 27 1008.0 - 4.8 - - - - - - -
24/05:00am 20.1 N 22 28 1008.0 - 4.8 - - - - - - -
24/04:44am 20.1 N 19 29 1007.6 - 4.6 - - - - - - -
24/04:30am 19.9 N 21 27 1008.0 - 4.4 - - - - - - -
24/04:16am 20.3 N 19 29 1007.9 - 4.2 - - - - - - -
24/04:00am 20.4 N 18 27 1008.0 - 2.2 - - - - - - -
24/03:49am 20.1 N 17 27 1008.1 - 1.6 - - - - - - -
24/03:30am 19.9 N 11 15 1008.4 - 1.0 - - - - - - -
24/03:00am 19.6 N 12 15 1008.8 - 1.0 - - - - - - -
24/02:30am 19.3 N 12 13 1009.1 - 1.0 - - - - - - -
24/02:00am 19.0 NNE 13 15 1009.9 - 1.0 - - - - - - -
24/01:30am 19.0 NE 17 21 1010.2 - 1.0 - - - - - - -
24/01:00am 19.1 NNE 17 24 1010.6 - 1.0 - - - - - - -
24/12:30am 19.0 N 14 20 1011.2 - 0.8 - - - - - - -
24/12:00am 19.1 N 16 20 1011.7 - 0.8 Recent precip. - - - - - -
 
Date/Time
EST
Temp
°C
Wind Pressure Rain since
9am
mm
Weather Cloud Vis
km
Sea
Height
m
Swell
Dir  Spd
kts
Gust
kts
hPa Trend Height
m
Period
s
Dir
23/11:30pm 19.8 N 18 24 1012.2 - 0.0 - - - - - - -
23/11:00pm 19.2 N 17 23 1011.9 - 0.0 - - - - - - -
23/10:30pm 20.2 N 20 28 1012.5 - 0.0 - - - - - - -
23/10:24pm 19.9 N 18 28 1012.6 - 0.0 - - - - - - -
23/10:00pm 20.7 N 18 23 1012.7 - 0.0 - - - - - - -
23/09:30pm 20.7 N 15 22 1012.8 - 0.0 - - - - - - -
23/09:00pm 20.5 N 15 21 1013.1 - 0.0 - - - - - - -
23/08:30pm 20.8 NNE 18 22 1013.2 - 0.0 - - - - - - -
23/08:00pm 20.8 N 15 19 1013.3 - 0.0 - - - - - - -
23/07:30pm 20.7 N 15 20 1013.1 - 0.0 - - - - - - -
23/07:00pm 20.7 NNE 16 20 1012.9 - 0.0 - - - - - - -
23/06:30pm 20.7 NNE 16 19 1012.9 - 0.0 - - - - - - -
23/06:00pm 20.6 NNE 12 16 1012.6 - 0.0 - - - - - - -
23/05:30pm 20.6 NNE 15 19 1012.3 - 0.0 - - - - - - -
23/05:00pm 20.7 NNE 14 19 1011.9 - 0.0 - - - - - - -
23/04:30pm 20.9 NNE 12 14 1012.3 - 0.0 - - - - - - -
23/04:00pm 21.4 NNE 14 18 1012.2 - 0.0 - - - - - - -
23/03:30pm 21.7 NNE 14 18 1012.0 - 0.0 - - - - - - -
23/03:00pm 21.9 NNE 13 17 1011.8 - 0.0 - - - - - - -
23/02:30pm 22.0 NNE 13 17 1011.9 - 0.0 - - - - - - -
23/02:00pm 23.6 N 9 13 1012.3 - 0.0 - - - - - - -
23/01:30pm 23.7 N 8 12 1012.4 - 0.0 - - - - - - -
23/01:00pm 23.4 N 9 12 1012.4 - 0.0 - - - - - - -
23/12:30pm 22.1 N 11 14 1013.2 - 0.0 - - - - - - -
23/12:00pm 22.6 NNW 10 14 1013.8 - 0.0 - - - - - - -
23/11:30am 21.7 NW 11 13 1014.4 - 0.0 - - - - - - -
23/11:00am 20.9 NW 13 15 1014.3 - 0.0 - - - - - - -
23/10:30am 21.4 NW 10 15 1014.7 - 0.0 - - - - - - -
23/10:00am 21.1 WNW 11 16 1014.9 - 0.0 - - - - - - -
23/09:30am 21.2 NW 13 18 1014.9 - 0.0 - - - - - - -
23/09:00am 21.1 NNW 14 18 1014.1 - 0.0 - - - - - - -
23/08:30am 20.5 N 15 19 1013.9 - 0.0 - - - - - - -
23/08:00am 20.1 NNW 14 19 1014.2 - 0.0 - - - - - - -
23/07:30am 20.0 NNW 13 17 1014.6 - 0.0 - - - - - - -
23/07:00am 19.6 NNW 11 15 1014.5 - 0.0 - - - - - - -
23/06:30am 19.2 NW 12 15 1014.8 - 0.0 - - - - - - -
23/06:00am 18.9 NW 10 13 1014.7 - 0.0 - - - - - - -
23/05:30am 19.0 NW 9 13 1014.6 - 0.0 - - - - - - -
23/05:00am 19.1 NW 10 15 1014.3 - 0.0 - - - - - - -
23/04:30am 18.9 NW 11 15 1014.0 - 0.0 - - - - - - -
23/04:00am 19.0 NW 11 16 1014.2 - 0.0 - - - - - - -
23/03:30am 18.9 NW 11 15 1014.1 - 0.0 - - - - - - -
23/03:00am 19.2 NW 12 16 1014.3 - 0.0 - - - - - - -
23/02:30am 19.5 NNW 13 16 1014.4 - 0.0 - - - - - - -
23/02:00am 19.6 NNW 13 19 1014.2 - 0.0 - - - - - - -
23/01:30am 20.1 N 18 22 1014.6 - 0.0 - - - - - - -
23/01:00am 20.1 N 17 22 1014.7 - 0.0 - - - - - - -
23/12:30am 20.2 N 17 21 1015.2 - 0.0 - - - - - - -
23/12:00am 20.1 N 19 24 1015.4 - 0.0 - - - - - - -
 
Date/Time
EST
Temp
°C
Wind Pressure Rain since
9am
mm
Weather Cloud Vis
km
Sea
Height
m
Swell
Dir  Spd
kts
Gust
kts
hPa Trend Height
m
Period
s
Dir
22/11:30pm 19.8 N 17 22 1015.5 - 0.0 - - - - - - -
22/11:00pm 19.9 N 16 21 1015.5 - 0.0 - - - - - - -
22/10:30pm 19.9 N 15 21 1015.6 - 0.0 - - - - - - -
22/10:00pm 19.7 N 17 21 1015.4 - 0.0 - - - - - - -
22/09:30pm 19.9 N 19 24 1015.3 - 0.0 - - - - - - -
22/09:00pm 19.8 NNE 20 25 1015.2 - 0.0 - - - - - - -
22/08:30pm 19.7 NNE 17 24 1015.1 - 0.0 - - - - - - -
22/08:00pm 19.7 NNE 17 21 1015.2 - 0.0 - - - - - - -
22/07:30pm 19.7 NNE 18 22 1015.1 - 0.0 - - - - - - -
22/07:00pm 19.6 NNE 17 22 1014.9 - 0.0 - - - - - - -
22/06:30pm 19.5 NNE 17 22 1014.7 - 0.0 - - - - - - -
22/06:00pm 19.4 NNE 16 20 1014.9 - 0.0 - - - - - - -
22/05:30pm 19.5 NNE 15 20 1014.7 - 0.0 - - - - - - -
22/05:00pm 19.7 NNE 15 20 1014.6 - 0.0 - - - - - - -
22/04:30pm 20.0 NNE 14 17 1014.6 - 0.0 - - - - - - -
22/04:00pm 20.2 NNE 14 19 1014.7 - 0.0 - - - - - - -
22/03:30pm 20.7 NNE 13 16 1014.7 - 0.0 - - - - - - -
22/03:00pm 21.1 NNE 12 15 1014.8 - 0.0 - - - - - - -
22/02:30pm 21.2 NNE 12 15 1015.2 - 0.0 - - - - - - -
22/02:00pm 21.9 NNE 11 15 1015.5 - 0.0 - - - - - - -
22/01:30pm 21.1 NNE 11 15 1015.8 - 0.0 - - - - - - -
22/01:00pm 21.4 NNE 11 13 1016.1 - 0.0 - - - - - - -
22/12:30pm 22.2 NE 10 13 1016.2 - 0.0 - - - - - - -
22/12:00pm 22.0 NE 11 13 1016.7 - 0.0 - - - - - - -
22/11:30am 21.9 NE 11 15 1017.0 - 0.0 - - - - - - -
22/11:00am 22.3 NE 10 14 1017.3 - 0.0 - - - - - - -
22/10:30am 21.9 NE 11 14 1017.6 - 0.0 - - - - - - -
22/10:00am 22.0 NE 11 15 1017.8 - 0.0 - - - - - - -
22/09:30am 21.4 ENE 8 11 1018.0 - 0.0 - - - - - - -
22/09:00am 21.0 ENE 11 13 1018.0 - 0.6 - - - - - - -
22/08:30am 21.5 E 10 12 1018.0 - 0.6 - - - - - - -
22/08:00am 20.8 E 11 12 1017.9 - 0.6 - - - - - - -
22/07:30am 20.3 ENE 11 13 1017.6 - 0.6 - - - - - - -
22/07:00am 18.9 E 11 14 1017.4 - 0.6 - - - - - - -
22/06:30am 18.5 ENE 12 14 1017.4 - 0.6 - - - - - - -
22/06:00am 18.2 ENE 13 15 1017.2 - 0.6 Recent precip. - - - - - -
22/05:30am 17.8 ENE 14 16 1017.0 - 0.4 - - - - - - -
22/05:00am 18.9 ENE 13 15 1016.8 - 0.0 - - - - - - -
22/04:30am 18.9 ENE 13 17 1016.5 - 0.0 - - - - - - -
22/04:00am 18.4 E 12 16 1016.4 - 0.0 - - - - - - -
22/03:30am 18.5 E 11 13 1016.8 - 0.0 - - - - - - -
22/03:00am 18.3 E 12 15 1016.6 - 0.0 - - - - - - -
22/02:30am 18.3 E 12 15 1016.7 - 0.0 - - - - - - -
22/02:00am 18.4 E 11 14 1017.0 - 0.0 - - - - - - -
22/01:30am 18.4 E 11 13 1017.1 - 0.0 - - - - - - -
22/01:00am 18.4 E 11 15 1017.4 - 0.0 - - - - - - -
22/12:30am 18.2 E 11 14 1017.6 - 0.0 - - - - - - -
22/12:00am 18.4 E 12 14 1017.8 - 0.0 - - - - - - -
 
Date/Time
EST
Temp
°C
Wind Pressure Rain since
9am
mm
Weather Cloud Vis
km
Sea
Height
m
Swell
Dir  Spd
kts
Gust
kts
hPa Trend Height
m
Period
s
Dir
21/11:30pm 18.2 E 11 13 1018.0 - 0.0 - - - - - - -
21/11:00pm 18.0 E 11 13 1018.2 - 0.0 - - - - - - -
21/10:30pm 17.8 E 11 13 1018.4 - 0.0 - - - - - - -
21/10:00pm 18.0 E 11 13 1018.6 - 0.0 - - - - - - -
21/09:30pm 18.1 ESE 11 13 1018.4 - 0.0 - - - - - - -
21/09:00pm 18.1 E 11 13 1018.2 - 0.0 - - - - - - -
21/08:30pm 18.1 E 12 15 1018.1 - 0.0 - - - - - - -
21/08:00pm 18.1 ESE 12 15 1018.1 - 0.0 - - - - - - -
21/07:30pm 18.0 ESE 14 16 1017.8 - 0.0 - - - - - - -
21/07:00pm 17.9 ESE 12 15 1017.8 - 0.0 - - - - - - -
21/06:30pm 17.8 SE 11 13 1017.6 - 0.0 - - - - - - -
21/06:00pm 17.7 SE 12 16 1017.5 - 0.0 - - - - - - -
21/05:30pm 17.7 SE 12 16 1017.3 - 0.0 - - - - - - -
21/05:00pm 17.9 SE 13 15 1017.3 - 0.0 - - - - - - -

Other Formats:

Comma delimited format used in spreadsheet applications
http://www.bom.gov.au/fwo/IDQ60701/IDQ60701.94594.axf

JavaScript Object Notation format (JSON) in row-major order
http://www.bom.gov.au/fwo/IDQ60701/IDQ60701.94594.json